Latest Weather Observations for Tennant Creek

IDD60801

Issued at 8:01 am CST Monday 1 March 2021 (issued every 10 minutes, with the page automatically refreshed every 10 minutes)

About weather observations | Map of weather stations | Latest weather observations for NT | Other Formats
Station Details ID: 015135 Name: TENNANT CREEK AIRPORT Lat: -19.64 Lon: 134.18 Height: 375.7 m
Data from the previous 72 hours. | See also: Recent months at Tennant Creek
Date/Time
CST
Temp
°C
App
Temp
°C
Dew
Point
°C
Rel
Hum
%
Delta-T
°C
Wind Press
QNH
hPa
Press
MSL
hPa
Rain since
9am
mm
Dir  Spd
km/h
Gust
km/h
Spd
kts
Gust
kts
01/08:00am 29.5 26.4 3.5 19 13.4 SE 9 13 5 7 1010.7 1007.7 0.0
01/07:30am 27.1 24.1 4.2 23 11.8 SE 9 11 5 6 1010.6 1007.6 0.0
01/07:00am 22.5 20.6 6.7 36 8.2 ESE 6 7 3 4 1010.4 1007.4 0.0
01/06:30am 21.9 19.6 5.8 35 8.2 ESE 7 7 4 4 1010.2 1007.2 0.0
01/06:00am 23.3 20.5 3.3 27 9.9 E 7 9 4 5 1009.9 1006.9 0.0
01/05:30am 25.4 21.3 2.2 22 11.4 ESE 13 15 7 8 1009.7 1006.7 0.0
01/05:00am 25.3 23.4 2.7 23 11.2 ESE 2 13 1 7 1009.4 1006.4 0.0
01/04:30am 24.1 22.9 4.5 28 9.9 CALM 0 0 0 0 1009.3 1006.3 0.0
01/04:00am 24.5 22.1 4.3 27 10.2 ESE 6 11 3 6 1009.3 1006.3 0.0
01/03:30am 24.7 23.6 5.0 28 10.1 CALM 0 2 0 1 1009.3 1006.3 0.0
01/03:00am 24.7 23.7 5.5 29 10.0 CALM 0 0 0 0 1009.4 1006.4 0.0
01/02:30am 27.6 26.3 4.0 22 12.1 CALM 0 0 0 0 1009.6 1006.6 0.0
01/02:00am 28.0 26.9 5.0 23 12.0 CALM 0 9 0 5 1009.7 1006.7 0.0
01/01:30am 26.0 25.1 6.1 28 10.5 CALM 0 4 0 2 1009.9 1006.9 0.0
01/01:00am 25.9 24.8 7.0 30 10.1 ESE 2 11 1 6 1009.9 1006.9 0.0
01/12:30am 23.6 23.6 9.9 42 7.6 CALM 0 0 0 0 1009.6 1006.6 0.0
01/12:00am 25.2 23.8 8.7 35 9.1 E 6 7 3 4 1009.7 1006.7 0.0
 
Date/Time
CST
Temp
°C
App
Temp
°C
Dew
Point
°C
Rel
Hum
%
Delta-T
°C
Wind Press
QNH
hPa
Press
MSL
hPa
Rain since
9am
mm
Dir  Spd
km/h
Gust
km/h
Spd
kts
Gust
kts
28/11:30pm 25.5 23.7 8.1 33 9.5 SSE 7 9 4 5 1009.8 1006.8 0.0
28/11:00pm 27.0 24.4 5.9 26 11.1 SW 9 11 5 6 1009.7 1006.7 0.0
28/10:30pm 26.5 24.2 7.5 30 10.3 SW 9 11 5 6 1009.5 1006.5 0.0
28/10:00pm 28.1 26.0 6.8 26 11.5 WSW 7 9 4 5 1009.4 1006.4 0.0
28/09:30pm 28.5 25.0 5.4 23 12.2 W 13 15 7 8 1008.9 1006.0 0.0
28/09:00pm 28.8 25.7 5.6 23 12.3 W 11 13 6 7 1008.6 1005.7 0.0
28/08:30pm 30.2 27.1 5.5 21 13.2 W 11 13 6 7 1008.2 1005.2 0.0
28/08:00pm 30.6 27.0 5.1 20 13.6 W 13 15 7 8 1007.6 1004.6 0.0
28/07:30pm 31.5 28.3 5.1 19 14.1 W 11 13 6 7 1007.3 1004.3 0.0
28/07:00pm 34.1 30.1 2.8 14 16.4 W 13 17 7 9 1007.1 1004.1 0.0
28/06:30pm 36.4 32.1 1.2 11 18.2 W 13 15 7 8 1006.8 1003.8 0.0
28/06:00pm 37.6 33.3 0.8 10 19.1 W 13 20 7 11 1006.6 1003.6 0.0
28/05:30pm 38.1 34.9 -0.3 9 19.6 SE 6 11 3 6 1006.2 1003.3 0.0
28/05:00pm 38.0 34.3 -0.3 9 19.5 SW 9 20 5 11 1006.3 1003.4 0.0
28/04:30pm 38.6 34.3 -1.5 8 20.2 WNW 11 17 6 9 1006.5 1003.5 0.0
28/04:00pm 37.9 33.4 -0.4 9 19.5 WSW 13 26 7 14 1006.8 1003.8 0.0
28/03:30pm 37.9 32.4 -2.0 8 19.8 SSE 17 33 9 18 1006.9 1003.9 0.0
28/03:00pm 38.2 33.5 -1.8 8 20.0 SE 13 24 7 13 1007.3 1004.3 0.0
28/02:30pm 37.8 33.1 -2.1 8 19.8 E 13 24 7 13 1007.7 1004.7 0.0
28/02:00pm 37.9 34.1 -0.4 9 19.5 NE 9 13 5 7 1008.4 1005.4 0.0
28/01:30pm 36.8 32.6 -1.2 9 19.0 SSE 11 20 6 11 1008.9 1006.0 0.0
28/01:00pm 36.7 32.4 -1.3 9 18.9 E 11 19 6 10 1009.5 1006.5 0.0
28/12:30pm 36.5 32.0 0.0 10 18.5 E 13 20 7 11 1009.9 1006.9 0.0
28/12:00pm 35.3 31.1 -0.9 10 18.0 ENE 11 17 6 9 1010.3 1007.3 0.0
28/11:30am 34.7 29.9 -0.1 11 17.4 ENE 15 20 8 11 1010.8 1007.8 0.0
28/11:00am 33.7 28.5 0.4 12 16.7 ENE 17 26 9 14 1011.1 1008.2 0.0
28/10:30am 33.1 27.7 1.0 13 16.2 E 19 26 10 14 1011.4 1008.5 0.0
28/10:00am 31.2 25.3 -0.5 13 15.4 ENE 20 28 11 15 1011.5 1008.6 0.0
28/09:30am 30.0 23.5 0.6 15 14.5 ENE 24 33 13 18 1011.4 1008.5 0.0
28/09:00am 29.5 23.5 1.1 16 14.0 E 22 28 12 15 1011.3 1008.4 0.0
28/08:30am 27.9 22.4 0.6 17 13.2 E 19 24 10 13 1011.1 1008.2 0.0
28/08:00am 26.5 21.6 1.7 20 12.1 ENE 17 22 9 12 1010.7 1007.7 0.0
28/07:30am 25.0 20.8 1.8 22 11.3 NE 13 15 7 8 1010.3 1007.3 0.0
28/07:00am 24.4 19.7 0.7 21 11.2 E 15 19 8 10 1010.0 1007.0 0.0
28/06:30am 24.0 18.7 -0.3 20 11.3 ESE 17 20 9 11 1009.6 1006.6 0.0
28/06:00am 23.1 18.7 0.2 22 10.6 ESE 13 17 7 9 1009.4 1006.4 0.0
28/05:30am 24.2 19.0 -0.2 20 11.4 ESE 17 20 9 11 1008.9 1006.0 0.0
28/05:00am 24.9 19.6 -0.3 19 11.7 ESE 17 20 9 11 1008.8 1005.9 0.0
28/04:30am 24.4 19.8 1.3 22 11.1 E 15 17 8 9 1008.6 1005.7 0.0
28/04:00am 23.2 19.5 2.1 25 10.2 E 11 13 6 7 1008.6 1005.7 0.0
28/03:30am 23.6 19.4 1.9 24 10.5 ESE 13 15 7 8 1008.6 1005.7 0.0
28/03:00am 23.6 19.5 2.4 25 10.3 ESE 13 15 7 8 1008.7 1005.8 0.0
28/02:30am 24.1 20.5 2.9 25 10.4 ESE 11 13 6 7 1008.8 1005.9 0.0
28/02:00am 22.2 20.7 5.2 33 8.6 SE 2 9 1 5 1008.9 1006.0 0.0
28/01:30am 24.1 22.9 4.5 28 9.9 CALM 0 0 0 0 1009.0 1006.1 0.0
28/01:00am 25.9 23.6 2.6 22 11.5 SSE 4 15 2 8 1009.1 1006.2 0.0
28/12:30am 26.9 23.4 3.4 22 11.9 S 11 17 6 9 1009.4 1006.4 0.0
28/12:00am 23.6 22.7 6.0 32 9.1 CALM 0 0 0 0 1009.4 1006.4 0.0
 
Date/Time
CST
Temp
°C
App
Temp
°C
Dew
Point
°C
Rel
Hum
%
Delta-T
°C
Wind Press
QNH
hPa
Press
MSL
hPa
Rain since
9am
mm
Dir  Spd
km/h
Gust
km/h
Spd
kts
Gust
kts
27/11:30pm 24.8 22.5 7.4 33 9.3 ESE 9 11 5 6 1009.4 1006.4 0.0
27/11:00pm 25.0 23.2 9.3 37 8.7 ESE 9 9 5 5 1009.5 1006.5 0.0
27/10:30pm 26.2 24.6 8.7 33 9.7 SE 7 9 4 5 1009.4 1006.4 0.0
27/10:00pm 26.1 24.1 7.2 30 10.2 ESE 7 9 4 5 1009.0 1006.1 0.0
27/09:30pm 26.4 25.8 7.4 30 10.3 CALM 0 0 0 0 1008.7 1005.8 0.0
27/09:00pm 27.2 26.6 7.6 29 10.7 CALM 0 0 0 0 1008.2 1005.2 0.0
27/08:30pm 28.0 26.0 6.2 25 11.7 WSW 6 7 3 4 1008.0 1005.0 0.0
27/08:00pm 30.8 27.8 2.1 16 14.5 WSW 7 7 4 4 1007.6 1004.6 0.0
27/07:30pm 29.7 28.6 5.1 21 13.1 CALM 0 0 0 0 1007.2 1004.2 0.0
27/07:00pm 33.7 30.1 0.4 12 16.7 ESE 9 11 5 6 1006.9 1003.9 0.0
27/06:30pm 35.5 31.9 -2.2 9 18.4 SSE 7 9 4 5 1006.6 1003.6 0.0
27/06:00pm 36.1 31.4 -1.7 9 18.7 SE 13 19 7 10 1006.3 1003.4 0.0
27/05:30pm 36.3 31.6 -1.6 9 18.8 SE 13 20 7 11 1006.3 1003.4 0.0
27/05:00pm 37.1 32.5 -1.0 9 19.1 SSE 13 30 7 16 1006.2 1003.3 0.0
27/04:30pm 36.3 32.4 -1.6 9 18.8 SSE 9 17 5 9 1006.2 1003.3 0.0
27/04:00pm 36.6 31.2 -1.4 9 18.9 SSE 17 28 9 15 1006.2 1003.3 0.0
27/03:30pm 36.9 31.5 -1.1 9 19.0 E 17 26 9 14 1006.3 1003.4 0.0
27/03:00pm 36.6 32.2 0.1 10 18.6 SSE 13 32 7 17 1006.7 1003.7 0.0
27/02:30pm 36.3 31.2 -1.6 9 18.8 ESE 15 26 8 14 1007.1 1004.1 0.0
27/02:00pm 36.3 32.4 -1.6 9 18.7 ENE 9 17 5 9 1007.4 1004.4 0.0
27/01:30pm 36.0 30.7 -0.4 10 18.3 SSE 17 30 9 16 1007.9 1004.9 0.0
27/01:00pm 35.7 30.0 -0.6 10 18.1 ESE 19 32 10 17 1008.5 1005.6 0.0
27/12:30pm 35.8 31.3 -0.5 10 18.2 NE 13 22 7 12 1009.0 1006.1 0.0
27/12:00pm 35.0 29.1 -2.6 9 18.1 E 19 30 10 16 1009.6 1006.6 0.0
27/11:30am 34.7 28.9 -0.1 11 17.4 ESE 20 28 11 15 1009.9 1006.9 0.0
27/11:00am 33.8 27.5 -0.7 11 17.0 E 22 30 12 16 1010.2 1007.2 0.0
27/10:30am 32.8 26.2 -0.3 12 16.3 E 24 30 13 16 1010.3 1007.3 0.0
27/10:00am 32.0 25.1 0.2 13 15.7 E 26 33 14 18 1010.5 1007.5 0.0
27/09:30am 30.3 23.1 0.8 15 14.6 ESE 28 35 15 19 1010.5 1007.5 0.0
27/09:00am 29.2 21.6 0.8 16 13.9 ESE 30 39 16 21 1010.4 1007.4 0.0
27/08:30am 28.1 20.8 -0.1 16 13.5 ESE 28 35 15 19 1010.4 1007.4 0.0
27/08:00am 26.4 19.4 -0.6 17 12.7 ESE 26 35 14 19 1010.3 1007.3 0.0
27/07:30am 24.9 17.9 -0.3 19 11.8 ESE 26 33 14 18 1009.9 1006.9 0.0
27/07:00am 23.2 17.6 -0.3 21 10.8 E 19 22 10 12 1009.5 1006.5 0.0
27/06:30am 23.7 17.9 -1.3 19 11.4 ESE 19 24 10 13 1009.1 1006.2 0.0
27/06:00am 23.2 17.6 -0.3 21 10.8 ESE 19 22 10 12 1008.7 1005.8 0.0
27/05:30am 23.3 18.1 -0.2 21 10.9 ESE 17 20 9 11 1008.4 1005.4 0.0
27/05:00am 23.5 18.6 -0.7 20 11.1 ESE 15 17 8 9 1008.1 1005.1 0.0
27/04:30am 23.6 18.8 0.0 21 11.0 ESE 15 17 8 9 1007.9 1004.9 0.0
27/04:00am 23.5 19.1 0.6 22 10.7 ESE 13 17 7 9 1007.8 1004.8 0.0
27/03:30am 24.2 19.4 0.5 21 11.2 ESE 15 20 8 11 1007.9 1004.9 0.0
27/03:00am 23.3 19.4 1.0 23 10.5 ESE 11 13 6 7 1008.0 1005.0 0.0
27/02:30am 23.8 20.3 1.4 23 10.7 ESE 9 11 5 6 1008.0 1005.0 0.0
27/02:00am 25.0 21.0 0.5 20 11.6 ESE 11 13 6 7 1008.1 1005.1 0.0
27/01:30am 25.3 21.7 0.8 20 11.7 ESE 9 13 5 7 1008.4 1005.4 0.0
27/01:00am 25.1 20.8 1.3 21 11.4 E 13 15 7 8 1008.6 1005.7 0.0
27/12:30am 26.4 22.1 0.9 19 12.3 ESE 13 15 7 8 1008.7 1005.8 0.0
27/12:00am 25.4 22.3 3.4 24 11.0 SE 9 13 5 7 1008.9 1006.0 0.0
 
Date/Time
CST
Temp
°C
App
Temp
°C
Dew
Point
°C
Rel
Hum
%
Delta-T
°C
Wind Press
QNH
hPa
Press
MSL
hPa
Rain since
9am
mm
Dir  Spd
km/h
Gust
km/h
Spd
kts
Gust
kts
26/11:30pm 24.3 21.7 4.1 27 10.2 SE 7 9 4 5 1009.0 1006.1 0.0
26/11:00pm 25.5 22.7 2.9 23 11.2 SW 7 11 4 6 1008.9 1006.0 0.0
26/10:30pm 25.4 23.0 4.5 26 10.7 SE 6 9 3 5 1008.8 1005.9 0.0
26/10:00pm 25.8 23.2 5.9 28 10.4 ESE 9 11 5 6 1008.6 1005.7 0.0
26/09:30pm 25.8 23.7 8.3 33 9.6 ESE 9 9 5 5 1008.3 1005.3 0.0
26/09:00pm 26.9 25.1 7.9 30 10.4 ESE 7 7 4 4 1008.1 1005.1 0.0
26/08:30pm 28.6 26.0 4.2 21 12.7 SE 7 9 4 5 1007.8 1004.8 0.0
26/08:00pm 30.5 27.3 1.0 15 14.6 SSE 7 9 4 5 1007.5 1004.5 0.0
26/07:30pm 31.3 28.2 1.6 15 15.0 SSE 7 9 4 5 1007.1 1004.1 0.0
26/07:00pm 32.8 28.9 -1.5 11 16.6 S 9 13 5 7 1006.7 1003.7 0.0
26/06:30pm 33.9 29.7 -0.7 11 17.1 SSW 11 15 6 8 1006.3 1003.4 0.0
26/06:00pm 34.4 29.9 -3.0 9 17.9 S 11 17 6 9 1006.0 1003.0 0.0
26/05:30pm 34.8 29.6 -2.7 9 18.1 SSE 15 24 8 13 1005.9 1002.9 0.0
26/05:00pm 35.2 30.6 -1.0 10 17.9 SE 13 22 7 12 1005.7 1002.7 0.0
26/04:30pm 35.5 31.7 -0.8 10 18.1 S 9 19 5 10 1005.9 1002.9 0.0
26/04:00pm 35.3 30.9 -2.3 9 18.2 SSE 11 17 6 9 1005.9 1002.9 0.0
26/03:30pm 35.5 32.1 -0.8 10 18.1 WSW 7 15 4 8 1006.3 1003.4 0.0
26/03:00pm 35.5 31.3 -0.8 10 18.1 SSW 11 17 6 9 1006.7 1003.7 0.0
26/02:30pm 34.6 30.0 -1.4 10 17.7 S 13 22 7 12 1007.0 1004.0 0.0
26/02:00pm 34.5 30.0 -2.9 9 17.9 E 11 22 6 12 1007.4 1004.4 0.0
26/01:30pm 34.6 29.8 -2.9 9 18.0 SSE 13 22 7 12 1007.8 1004.8 0.0
26/01:00pm 34.3 28.9 -1.7 10 17.5 ENE 17 26 9 14 1008.2 1005.2 0.0
26/12:30pm 33.4 28.0 -1.0 11 16.9 E 17 28 9 15 1008.7 1005.8 0.0
26/12:00pm 33.2 27.2 -1.2 11 16.8 E 20 30 11 16 1009.0 1006.1 0.0
26/11:30am 32.6 26.2 -1.7 11 16.5 E 22 30 12 16 1009.4 1006.4 0.0
26/11:00am 31.4 24.5 -2.6 11 16.0 E 24 33 13 18 1009.6 1006.6 0.0
26/10:30am 30.9 23.2 -3.0 11 15.8 E 28 37 15 20 1009.7 1006.7 0.0
26/10:00am 29.8 21.5 -1.5 13 14.8 E 32 39 17 21 1009.9 1006.9 0.0
26/09:30am 29.3 21.1 -0.9 14 14.4 ESE 32 43 17 23 1009.9 1006.9 0.0
26/09:00am 27.7 19.6 -3.2 13 14.0 ESE 30 39 16 21 1009.9 1006.9 0.0
26/08:30am 27.0 18.0 -2.7 14 13.5 E 35 46 19 25 1009.6 1006.6 0.0

Other formats

Comma delimited format used in spreadsheet applications
http://www.bom.gov.au/fwo/IDD60801/IDD60801.94238.axf

JavaScript Object Notation format (JSON) in row-major order
http://www.bom.gov.au/fwo/IDD60801/IDD60801.94238.json

Data quality

Most of these data are generated automatically and are frequently updated. Quality checks on data are not normally performed. It is possible for incorrect values to appear. Refer to information at About Latest Weather Observations and please check the disclaimer before using these data.